createdAt,value
2023-03-11T00:04:30.250Z,1.37
2023-03-11T00:09:35.036Z,1.35
2023-03-11T00:14:37.960Z,1.37
2023-03-11T00:19:40.784Z,1.37
2023-03-11T00:24:44.982Z,1.32
2023-03-11T00:29:47.917Z,1.40
2023-03-11T00:34:50.773Z,1.40
2023-03-11T00:39:55.738Z,1.40
2023-03-11T00:44:58.540Z,1.39
2023-03-11T00:50:01.360Z,1.37
2023-03-11T00:55:06.427Z,1.27
2023-03-11T01:00:15.344Z,1.31
2023-03-11T01:05:20.458Z,1.34
2023-03-11T01:10:24.714Z,1.34
2023-03-11T01:15:30.381Z,1.34
2023-03-11T01:20:36.322Z,1.33
2023-03-11T01:25:40.663Z,1.28
2023-03-11T01:30:43.977Z,1.24
2023-03-11T01:35:47.257Z,1.14
2023-03-11T01:40:52.944Z,1.08
2023-03-11T01:46:12.225Z,0.97
2023-03-11T01:51:16.909Z,0.92
2023-03-11T01:56:21.326Z,0.86
2023-03-11T02:01:25.327Z,0.82
2023-03-11T02:06:28.785Z,0.80
2023-03-11T02:11:33.022Z,0.79
2023-03-11T02:16:36.836Z,0.76
2023-03-11T02:21:40.848Z,0.74
2023-03-11T02:26:52.812Z,0.71
2023-03-11T02:31:56.274Z,0.71
2023-03-11T02:37:00.179Z,0.71
2023-03-11T02:42:07.766Z,0.66
2023-03-11T02:47:10.689Z,0.65
2023-03-11T02:52:13.615Z,0.65
2023-03-11T02:57:17.879Z,0.64
2023-03-11T03:02:21.060Z,0.61
2023-03-11T03:07:24.306Z,0.57
2023-03-11T03:12:28.622Z,0.55
2023-03-11T03:17:31.566Z,0.49
2023-03-11T03:28:05.920Z,0.51
2023-03-11T03:33:12.096Z,0.37
2023-03-11T03:38:15.166Z,0.35
2023-03-11T03:43:19.986Z,0.43
2023-03-11T03:48:23.536Z,0.44
2023-03-11T03:53:26.557Z,0.39
2023-03-11T03:58:30.969Z,0.44
2023-03-11T04:03:35.216Z,0.40
2023-03-11T04:08:43.729Z,0.29
2023-03-11T04:13:49.048Z,0.39
2023-03-11T04:18:52.601Z,0.37
2023-03-11T04:23:56.972Z,0.33
2023-03-11T04:29:06.360Z,0.31
2023-03-11T04:34:15.208Z,0.29
2023-03-11T04:39:18.400Z,0.28
2023-03-11T04:44:24.003Z,0.28
2023-03-11T04:49:27.336Z,0.26
2023-03-11T04:54:30.520Z,0.20
2023-03-11T04:59:34.898Z,0.20
2023-03-11T05:04:38.012Z,0.08
2023-03-11T05:09:41.242Z,0.06
2023-03-11T05:14:45.615Z,0.00
2023-03-11T05:19:49.688Z,-0.01
2023-03-11T05:25:00.128Z,-0.04
2023-03-11T05:30:05.486Z,-0.07
2023-03-11T05:35:11.073Z,-0.03
2023-03-11T05:40:14.393Z,-0.09
2023-03-11T05:45:18.710Z,-0.06
2023-03-11T05:50:24.903Z,-0.10
2023-03-11T05:55:28.952Z,-0.16
2023-03-11T06:00:33.322Z,-0.23
2023-03-11T06:05:45.745Z,-0.29
2023-03-11T06:10:49.139Z,-0.33
2023-03-11T06:15:54.674Z,-0.28
2023-03-11T06:21:00.566Z,-0.32
2023-03-11T06:26:06.224Z,-0.38
2023-03-11T06:31:18.126Z,-0.44
2023-03-11T06:36:21.753Z,-0.38
2023-03-11T06:41:26.610Z,-0.37
2023-03-11T06:46:31.705Z,-0.08
2023-03-11T06:51:34.717Z,1.26
2023-03-11T06:56:39.014Z,2.72
2023-03-11T07:01:45.328Z,3.31
2023-03-11T07:06:48.186Z,3.37
2023-03-11T07:11:55.531Z,4.05
2023-03-11T07:17:06.511Z,4.06
2023-03-11T07:22:15.403Z,4.21
2023-03-11T07:27:18.562Z,4.65
2023-03-11T07:32:22.877Z,4.98
2023-03-11T07:37:25.816Z,4.06
2023-03-11T07:42:28.757Z,2.87
2023-03-11T07:47:32.828Z,2.21
2023-03-11T07:52:35.595Z,2.05
2023-03-11T07:57:38.488Z,1.99
2023-03-11T08:02:42.858Z,1.97
2023-03-11T08:07:45.765Z,1.94
2023-03-11T08:12:48.629Z,1.91
2023-03-11T08:17:52.809Z,1.98
2023-03-11T08:22:58.347Z,2.02
2023-03-11T08:28:01.671Z,2.08
2023-03-11T08:33:06.417Z,2.17
2023-03-11T08:38:09.283Z,2.24
2023-03-11T08:43:13.627Z,2.35
2023-03-11T08:48:17.928Z,2.44
2023-03-11T08:53:20.738Z,2.67
2023-03-11T08:58:23.551Z,2.98
2023-03-11T09:03:27.766Z,3.18
2023-03-11T09:08:30.847Z,3.41
2023-03-11T09:13:34.003Z,3.54
2023-03-11T09:18:38.207Z,3.83
2023-03-11T09:23:44.167Z,3.98
2023-03-11T09:28:49.185Z,4.24
2023-03-11T09:33:55.564Z,4.43
2023-03-11T09:38:58.445Z,4.62
2023-03-11T09:44:11.605Z,4.85
2023-03-11T09:49:22.418Z,4.92
2023-03-11T09:54:25.362Z,4.83
2023-03-11T09:59:31.809Z,4.59
2023-03-11T10:04:41.193Z,4.70
2023-03-11T10:09:48.251Z,4.65
2023-03-11T10:15:09.383Z,4.82
2023-03-11T10:20:16.713Z,4.71
2023-03-11T10:25:22.509Z,4.71
2023-03-11T10:30:28.510Z,4.76
2023-03-11T10:35:39.136Z,4.82
2023-03-11T10:40:43.622Z,4.77
2023-03-11T10:45:48.664Z,4.79
2023-03-11T10:50:58.179Z,4.93
2023-03-11T10:56:01.465Z,4.64
2023-03-11T11:01:07.759Z,4.75
2023-03-11T11:06:22.422Z,4.67
2023-03-11T11:11:25.805Z,4.68
2023-03-11T11:16:29.327Z,4.82
2023-03-11T11:21:35.935Z,4.93
2023-03-11T11:26:38.733Z,4.89
2023-03-11T11:31:42.771Z,4.98
2023-03-11T11:36:47.306Z,5.06
2023-03-11T11:41:50.994Z,5.04
2023-03-11T11:46:56.629Z,5.20
2023-03-11T11:52:05.260Z,5.28
2023-03-11T11:57:13.180Z,5.27
2023-03-11T12:02:31.676Z,5.36
2023-03-11T12:07:49.387Z,5.51
2023-03-11T12:13:18.616Z,5.56
2023-03-11T12:18:25.633Z,5.60
2023-03-11T12:23:41.502Z,5.67
2023-03-11T12:28:47.616Z,5.80
2023-03-11T12:33:52.246Z,5.83
2023-03-11T12:38:56.672Z,5.95
2023-03-11T12:44:04.428Z,5.98
2023-03-11T12:49:12.951Z,6.01
2023-03-11T12:54:30.832Z,6.00
2023-03-11T12:59:53.916Z,5.98
2023-03-11T13:05:00.618Z,5.80
2023-03-11T13:10:13.767Z,5.82
2023-03-11T13:15:30.825Z,6.06
2023-03-11T13:20:49.712Z,5.96
2023-03-11T13:26:22.911Z,5.75
2023-03-11T13:31:40.462Z,5.61
2023-03-11T13:36:53.802Z,5.72
2023-03-11T13:41:58.112Z,5.95
2023-03-11T13:47:05.746Z,5.88
2023-03-11T13:52:10.871Z,5.65
2023-03-11T13:57:25.302Z,5.79
2023-03-11T14:02:28.779Z,5.57
2023-03-11T14:07:34.408Z,5.74
2023-03-11T14:12:38.901Z,5.69
2023-03-11T14:17:41.697Z,5.58
2023-03-11T14:22:49.726Z,5.63
2023-03-11T14:27:57.094Z,5.72
2023-03-11T14:33:02.447Z,5.80
2023-03-11T14:38:06.982Z,5.94
2023-03-11T14:43:12.661Z,6.04
2023-03-11T14:48:20.323Z,5.95
2023-03-11T14:53:25.517Z,5.93
2023-03-11T14:58:34.529Z,5.93
2023-03-11T15:03:39.440Z,5.81
2023-03-11T15:08:45.348Z,5.82
2023-03-11T15:13:51.264Z,6.13
2023-03-11T15:18:55.466Z,6.26
2023-03-11T15:24:02.625Z,6.35
2023-03-11T15:29:15.707Z,6.28
2023-03-11T15:34:25.472Z,6.09
2023-03-11T15:39:42.059Z,6.09
2023-03-11T15:44:51.304Z,6.00
2023-03-11T15:49:54.176Z,6.21
2023-03-11T15:54:57.010Z,6.29
2023-03-11T16:00:02.914Z,6.38
2023-03-11T16:05:14.912Z,6.18
2023-03-11T16:10:20.720Z,6.12
2023-03-11T16:15:28.996Z,6.17
2023-03-11T16:20:34.151Z,5.82
2023-03-11T16:25:39.260Z,5.43
2023-03-11T16:30:43.662Z,5.22
2023-03-11T16:35:46.956Z,5.13
2023-03-11T16:40:56.814Z,5.06
2023-03-11T16:46:01.029Z,5.03
2023-03-11T16:51:03.906Z,4.84
2023-03-11T16:56:07.375Z,4.69
2023-03-11T17:01:14.080Z,4.62
2023-03-11T17:06:17.154Z,4.69
2023-03-11T17:11:21.171Z,4.64
2023-03-11T17:16:25.706Z,4.52
2023-03-11T17:21:28.594Z,4.40
2023-03-11T17:26:31.693Z,4.30
2023-03-11T17:31:35.927Z,4.17
2023-03-11T17:36:38.824Z,4.04
2023-03-11T17:41:42.049Z,3.90
2023-03-11T17:46:46.296Z,3.74
2023-03-11T17:51:49.286Z,3.60
2023-03-11T17:56:52.728Z,3.46
2023-03-11T18:01:57.469Z,3.41
2023-03-11T18:07:00.229Z,3.35
2023-03-11T18:12:04.017Z,3.39
2023-03-11T18:17:08.104Z,3.38
2023-03-11T18:22:11.068Z,3.37
2023-03-11T18:27:13.904Z,3.29
2023-03-11T18:32:18.158Z,3.29
2023-03-11T18:37:21.040Z,3.23
2023-03-11T18:42:23.908Z,3.20
2023-03-11T18:47:28.041Z,3.14
2023-03-11T18:52:30.904Z,2.97
2023-03-11T18:57:33.774Z,2.86
2023-03-11T19:02:37.967Z,2.80
2023-03-11T19:07:40.777Z,2.76
2023-03-11T19:12:44.954Z,2.65
2023-03-11T19:18:00.654Z,2.52
2023-03-11T19:23:09.321Z,2.39
2023-03-11T19:28:12.084Z,2.30
2023-03-11T19:33:16.183Z,2.28
2023-03-11T19:38:18.997Z,2.24
2023-03-11T19:43:24.010Z,2.23
2023-03-11T19:48:28.245Z,2.25
2023-03-11T19:53:31.272Z,2.23
2023-03-11T19:58:34.323Z,2.23
2023-03-11T20:03:38.447Z,2.18
2023-03-11T20:08:41.439Z,2.08
2023-03-11T20:13:44.276Z,2.08
2023-03-11T20:18:51.105Z,2.09
2023-03-11T20:23:54.803Z,2.10
2023-03-11T20:28:57.886Z,2.06
2023-03-11T20:34:02.269Z,2.10
2023-03-11T20:39:08.581Z,2.15
2023-03-11T20:44:13.762Z,2.25
2023-03-11T20:49:17.959Z,2.32
2023-03-11T20:54:20.789Z,2.35
2023-03-11T20:59:23.676Z,2.37
2023-03-11T21:04:27.974Z,2.41
2023-03-11T21:09:30.784Z,2.43
2023-03-11T21:14:33.662Z,2.41
2023-03-11T21:19:37.903Z,2.40
2023-03-11T21:24:40.883Z,2.40
2023-03-11T21:29:46.512Z,2.43
2023-03-11T21:34:51.014Z,2.42
2023-03-11T21:39:53.913Z,2.38
2023-03-11T21:44:57.121Z,2.28
2023-03-11T21:50:01.383Z,2.19
2023-03-11T21:55:04.358Z,2.15
2023-03-11T22:00:09.925Z,2.11
2023-03-11T22:05:14.679Z,2.18
2023-03-11T22:10:18.114Z,2.23
2023-03-11T22:15:21.233Z,2.30
2023-03-11T22:20:25.465Z,2.36
2023-03-11T22:25:28.186Z,2.46
2023-03-11T22:30:31.604Z,2.57
2023-03-11T22:35:35.849Z,2.57
2023-03-11T22:40:39.354Z,2.58
2023-03-11T22:45:42.273Z,2.59
2023-03-11T22:50:47.158Z,2.60
2023-03-11T22:55:50.422Z,2.66
2023-03-11T23:00:53.200Z,2.68
2023-03-11T23:05:59.212Z,2.63
2023-03-11T23:11:03.274Z,2.67
2023-03-11T23:16:08.302Z,2.72
2023-03-11T23:21:23.573Z,2.63
2023-03-11T23:26:26.425Z,2.73
2023-03-11T23:31:30.506Z,2.74
2023-03-11T23:36:34.636Z,2.79
2023-03-11T23:41:38.025Z,2.80
2023-03-11T23:46:40.883Z,2.82
2023-03-11T23:51:44.963Z,2.80
2023-03-11T23:56:47.781Z,2.82
